Time;durP1;ratioP1;P1;durP2;ratioP2;P2;SDS_P1;SDS_P2;PMS_P1;PMS_P2;Temp;Humidity;BMP_temperature;BMP_pressure;BME280_temperature;BME280_humidity;BME280_pressure;Samples;Min_cycle;Max_cycle;Signal;HPM_P1;HPM_P2
2023/05/19 00:00:45;;;;;;;;;;;;;;;12.45;62.22;98788.16;7373851;19;19911;-74
2023/05/19 00:03:16;;;;;;;;;;;;;;;12.46;60.59;98786.34;7369243;19;19950;-74
2023/05/19 00:05:44;;;;;;;;;;;;;;;12.44;59.75;98785.66;7377620;19;20404;-74
2023/05/19 00:08:11;;;;;;;;;;;;;;;12.38;59.94;98776.50;7372324;19;19947;-74
2023/05/19 00:10:38;;;;;;;;;;;;;;;12.37;59.13;98782.78;7374614;19;19914;-74
2023/05/19 00:13:05;;;;;;;;;;;;;;;12.38;59.12;98784.47;7371815;19;20339;-74
2023/05/19 00:15:31;;;;;;;;;;;;;;;12.33;59.99;98784.09;7370984;19;19926;-74
2023/05/19 00:17:58;;;;;;;;;;;;;;;12.37;61.16;98777.47;7373374;19;20291;-74
2023/05/19 00:20:25;;;;;;;;;;;;;;;12.40;60.02;98781.63;7367446;19;19939;-74
2023/05/19 00:22:52;;;;;;;;;;;;;;;12.41;61.28;98775.34;7374641;19;19994;-75
2023/05/19 00:25:18;;;;;;;;;;;;;;;12.36;58.35;98778.47;7372667;19;19918;-74
2023/05/19 00:27:45;;;;;;;;;;;;;;;12.39;57.85;98772.03;7377462;19;20498;-74
2023/05/19 00:30:12;;;;;;;;;;;;;;;12.37;58.66;98772.16;7372841;19;19914;-74
2023/05/19 00:32:39;;;;;;;;;;;;;;;12.42;59.85;98775.19;7375147;19;20436;-74
2023/05/19 00:35:06;;;;;;;;;;;;;;;12.35;57.31;98773.31;7369029;19;19921;-73
2023/05/19 00:37:33;;;;;;;;;;;;;;;12.36;58.31;98770.50;7376934;19;19918;-74
2023/05/19 00:40:00;;;;;;;;;;;;;;;12.35;57.51;98768.88;7375532;19;19922;-74
2023/05/19 00:42:26;;;;;;;;;;;;;;;12.39;59.28;98764.06;7370302;19;19923;-74
2023/05/19 00:44:53;;;;;;;;;;;;;;;12.34;58.60;98764.53;7374711;19;19954;-74
2023/05/19 00:47:20;;;;;;;;;;;;;;;12.35;58.82;98766.22;7371989;19;19926;-74
2023/05/19 00:49:47;;;;;;;;;;;;;;;12.28;58.92;98760.69;7371104;19;19919;-74
2023/05/19 00:52:13;;;;;;;;;;;;;;;12.26;59.02;98760.00;7369037;19;19982;-74
2023/05/19 00:54:40;;;;;;;;;;;;;;;12.22;59.26;98758.66;7375000;19;19999;-74
2023/05/19 00:57:07;;;;;;;;;;;;;;;12.26;59.80;98770.63;7373479;19;19918;-74
2023/05/19 00:59:33;;;;;;;;;;;;;;;12.20;60.24;98760.63;7377411;19;20024;-74
2023/05/19 01:02:01;;;;;;;;;;;;;;;12.24;59.32;98754.03;7374436;19;19929;-74
2023/05/19 01:04:28;;;;;;;;;;;;;;;12.20;60.42;98755.34;7369237;19;19962;-74
2023/05/19 01:06:55;;;;;;;;;;;;;;;12.17;59.42;98752.19;7374031;19;19941;-74
2023/05/19 01:09:22;;;;;;;;;;;;;;;12.23;58.94;98754.19;7369508;19;19926;-74
2023/05/19 01:11:49;;;;;;;;;;;;;;;12.21;58.91;98745.56;7373531;19;19926;-74
2023/05/19 01:14:15;;;;;;;;;;;;;;;12.25;60.83;98753.03;7372801;19;19919;-74
2023/05/19 01:16:45;;;;;;;;;;;;;;;12.28;61.03;98758.03;7375056;19;19915;-74
2023/05/19 01:19:30;;;;;;;;;;;;;;;12.22;59.39;98757.84;7376694;19;19957;-75
2023/05/19 01:21:59;;;;;;;;;;;;;;;12.25;59.24;98755.69;7380927;19;19919;-74
2023/05/19 01:24:35;;;;;;;;;;;;;;;12.27;58.94;98747.59;7377031;19;19962;-74
2023/05/19 01:27:12;;;;;;;;;;;;;;;12.25;58.98;98755.69;7383132;19;19919;-74
2023/05/19 01:29:40;;;;;;;;;;;;;;;12.26;60.74;98757.34;7380386;19;20014;-74
2023/05/19 01:32:08;;;;;;;;;;;;;;;12.27;59.62;98759.03;7377173;19;19918;-74
2023/05/19 01:34:36;;;;;;;;;;;;;;;12.26;59.80;98762.66;7374294;19;19918;-73
2023/05/19 01:37:03;;;;;;;;;;;;;;;12.29;59.65;98764.16;7383329;19;20352;-73
2023/05/19 01:39:29;;;;;;;;;;;;;;;12.25;59.17;98771.63;7377529;19;19914;-74
2023/05/19 01:41:56;;;;;;;;;;;;;;;12.32;59.79;98757.72;7378010;19;20280;-74
2023/05/19 01:44:23;;;;;;;;;;;;;;;12.25;59.46;98761.00;7375402;19;20249;-73
2023/05/19 01:46:49;;;;;;;;;;;;;;;12.26;59.73;98762.66;7382837;19;19954;-74
2023/05/19 01:49:16;;;;;;;;;;;;;;;12.23;59.03;98762.97;7376407;19;19992;-74
2023/05/19 01:51:43;;;;;;;;;;;;;;;12.23;59.74;98760.31;7379298;19;20335;-74
2023/05/19 01:54:10;;;;;;;;;;;;;;;12.27;59.96;98772.28;7376487;19;20010;-74
2023/05/19 01:56:42;;;;;;;;;;;;;;;12.27;59.61;98767.00;7379882;19;19978;-74
2023/05/19 01:59:19;;;;;;;;;;;;;;;12.28;59.53;98767.81;7375114;19;19946;-74
2023/05/19 02:01:52;;;;;;;;;;;;;;;12.26;59.48;98765.31;7380328;19;19925;-74
2023/05/19 02:04:20;;;;;;;;;;;;;;;12.31;60.64;98759.53;7374682;19;19982;-75
2023/05/19 02:06:56;;;;;;;;;;;;;;;12.25;59.50;98762.84;7382073;19;19918;-74
2023/05/19 02:09:34;;;;;;;;;;;;;;;12.21;60.55;98764.94;7376497;19;19927;-74
2023/05/19 02:12:11;;;;;;;;;;;;;;;12.23;60.81;98770.09;7376636;19;20314;-74
2023/05/19 02:14:42;;;;;;;;;;;;;;;12.17;61.22;98762.78;7375099;19;20772;-74
2023/05/19 02:17:09;;;;;;;;;;;;;;;11.98;61.98;98772.59;7379749;19;19940;-74
2023/05/19 02:19:37;;;;;;;;;;;;;;;11.92;61.83;98757.28;7379453;19;20586;-74
2023/05/19 02:22:04;;;;;;;;;;;;;;;11.72;61.38;98764.59;7380099;19;19915;-74
2023/05/19 02:24:30;;;;;;;;;;;;;;;11.79;61.68;98764.78;7379309;19;19932;-74
2023/05/19 02:26:58;;;;;;;;;;;;;;;11.75;62.26;98764.28;7382175;19;21141;-75
2023/05/19 02:29:25;;;;;;;;;;;;;;;11.72;62.86;98761.09;7370530;19;19981;-74
2023/05/19 02:31:52;;;;;;;;;;;;;;;11.75;63.46;98763.44;7377491;19;19915;-75
2023/05/19 02:34:18;;;;;;;;;;;;;;;11.72;64.36;98761.94;7373245;19;19929;-74
2023/05/19 02:36:48;;;;;;;;;;;;;;;11.70;63.08;98763.91;7380233;19;20303;-74
2023/05/19 02:39:15;;;;;;;;;;;;;;;11.65;63.42;98767.00;7376961;19;19937;-74
2023/05/19 02:41:42;;;;;;;;;;;;;;;11.63;63.96;98755.72;7381491;19;20002;-74
2023/05/19 02:44:08;;;;;;;;;;;;;;;11.64;63.59;98764.53;7379877;19;19982;-74
2023/05/19 02:46:36;;;;;;;;;;;;;;;11.64;63.76;98759.22;7375169;19;19986;-74
2023/05/19 02:49:03;;;;;;;;;;;;;;;11.64;64.47;98759.22;7377750;19;19919;-74
2023/05/19 02:51:29;;;;;;;;;;;;;;;11.61;63.04;98760.34;7377739;19;19922;-74
2023/05/19 02:53:56;;;;;;;;;;;;;;;11.61;63.38;98757.72;7376681;19;20243;-74
2023/05/19 02:56:23;;;;;;;;;;;;;;;11.63;63.69;98755.72;7377189;19;19923;-74
2023/05/19 02:58:51;;;;;;;;;;;;;;;11.60;63.35;98750.72;7381700;19;20359;-74
2023/05/19 03:01:20;;;;;;;;;;;;;;;11.57;63.24;98753.69;7376188;19;19918;-74
2023/05/19 03:03:48;;;;;;;;;;;;;;;11.52;63.82;98745.34;7376863;19;19970;-74
2023/05/19 03:06:16;;;;;;;;;;;;;;;11.51;63.57;98753.47;7373818;19;19992;-74
2023/05/19 03:08:43;;;;;;;;;;;;;;;11.56;64.03;98748.56;7383820;19;19922;-75
2023/05/19 03:11:10;;;;;;;;;;;;;;;11.50;63.99;98743.84;7380472;19;19911;-74
2023/05/19 03:13:37;;;;;;;;;;;;;;;11.52;64.58;98740.06;7374059;19;19915;-74
2023/05/19 03:16:06;;;;;;;;;;;;;;;11.44;64.01;98742.63;7378443;19;19930;-74
2023/05/19 03:18:34;;;;;;;;;;;;;;;11.42;64.19;98747.25;7377638;19;19915;-74
2023/05/19 03:21:00;;;;;;;;;;;;;;;11.33;64.88;98749.00;7373648;19;19998;-74
2023/05/19 03:23:27;;;;;;;;;;;;;;;11.40;65.18;98749.22;7370599;19;19978;-69
2023/05/19 03:25:55;;;;;;;;;;;;;;;11.34;65.08;98752.47;7373746;19;20261;-70
2023/05/19 03:28:22;;;;;;;;;;;;;;;11.37;65.48;98752.16;7373868;19;22408;-70
2023/05/19 03:30:51;;;;;;;;;;;;;;;11.31;65.03;98748.31;7375192;19;19922;-70
2023/05/19 03:33:22;;;;;;;;;;;;;;;11.31;65.65;98745.66;7370175;19;19914;-69
2023/05/19 03:35:51;;;;;;;;;;;;;;;11.23;66.08;98747.41;7373582;19;19919;-70
2023/05/19 03:38:19;;;;;;;;;;;;;;;11.18;66.17;98748.69;7371312;19;19982;-69
2023/05/19 03:40:52;;;;;;;;;;;;;;;11.11;65.13;98747.66;7374131;19;19919;-69
2023/05/19 03:43:19;;;;;;;;;;;;;;;11.08;65.45;98753.22;7372856;19;19929;-69
2023/05/19 03:45:52;;;;;;;;;;;;;;;11.06;65.95;98749.03;7375663;19;19943;-69
2023/05/19 03:48:37;;;;;;;;;;;;;;;10.91;65.25;98748.75;7375187;19;19922;-70
2023/05/19 03:51:29;;;;;;;;;;;;;;;10.92;65.47;98747.75;7370657;19;19949;-70
2023/05/19 03:54:04;;;;;;;;;;;;;;;10.96;66.02;98759.72;7373403;19;20028;-70
2023/05/19 03:56:31;;;;;;;;;;;;;;;10.93;65.85;98750.25;7367122;19;19931;-70
2023/05/19 03:58:59;;;;;;;;;;;;;;;10.98;66.15;98758.59;7371864;19;19944;-69
2023/05/19 04:01:25;;;;;;;;;;;;;;;10.99;66.25;98760.25;7370130;19;19914;-69
2023/05/19 04:03:52;;;;;;;;;;;;;;;10.83;64.89;98764.53;7371329;19;19919;-69
2023/05/19 04:06:19;;;;;;;;;;;;;;;10.95;66.02;98764.19;7369956;19;19922;-69
2023/05/19 04:08:45;;;;;;;;;;;;;;;10.91;65.97;98765.44;7377479;19;19925;-69
2023/05/19 04:11:12;;;;;;;;;;;;;;;10.89;65.89;98767.41;7373134;19;19931;-69
2023/05/19 04:13:39;;;;;;;;;;;;;;;10.86;65.36;98765.06;7370279;19;19919;-70
2023/05/19 04:16:05;;;;;;;;;;;;;;;10.86;65.45;98769.53;7377413;19;19933;-70
2023/05/19 04:18:32;;;;;;;;;;;;;;;10.77;65.88;98764.13;7369622;19;19919;-70
2023/05/19 04:20:59;;;;;;;;;;;;;;;10.62;65.36;98767.41;7372651;19;19922;-70
2023/05/19 04:23:26;;;;;;;;;;;;;;;10.75;66.05;98770.56;7369031;19;19919;-70
2023/05/19 04:25:55;;;;;;;;;;;;;;;10.87;65.96;98771.19;7372995;19;19919;-70
2023/05/19 04:28:22;;;;;;;;;;;;;;;11.01;65.69;98769.88;7366117;19;20348;-70
2023/05/19 04:30:49;;;;;;;;;;;;;;;11.05;66.01;98773.88;7373193;19;19918;-70
2023/05/19 04:33:16;;;;;;;;;;;;;;;10.91;65.50;98777.84;7373327;19;19943;-69
2023/05/19 04:35:43;;;;;;;;;;;;;;;11.10;66.77;98779.56;7367786;19;20012;-69
2023/05/19 04:38:11;;;;;;;;;;;;;;;10.99;66.24;98775.31;7370706;19;19925;-70
2023/05/19 04:40:41;;;;;;;;;;;;;;;11.10;67.02;98782.19;7366852;19;19922;-70
2023/05/19 04:43:08;;;;;;;;;;;;;;;10.99;66.35;98776.13;7367507;19;19915;-69
2023/05/19 04:45:36;;;;;;;;;;;;;;;11.09;66.57;98778.72;7366592;19;19944;-70
2023/05/19 04:48:05;;;;;;;;;;;;;;;11.07;66.26;98778.03;7374344;19;19915;-69
2023/05/19 04:50:32;;;;;;;;;;;;;;;11.17;66.99;98783.28;7369170;19;19926;-70
2023/05/19 04:52:59;;;;;;;;;;;;;;;11.02;66.42;98782.94;7375761;19;19929;-69
2023/05/19 04:55:26;;;;;;;;;;;;;;;10.88;66.16;98773.69;7366143;19;19923;-69
2023/05/19 04:57:53;;;;;;;;;;;;;;;10.93;66.34;98778.56;7375293;19;19940;-69
2023/05/19 05:00:21;;;;;;;;;;;;;;;10.93;66.03;98783.84;7369821;19;20350;-69
2023/05/19 05:02:56;;;;;;;;;;;;;;;10.87;66.25;98781.75;7373791;19;19951;-69
2023/05/19 05:05:24;;;;;;;;;;;;;;;10.70;65.91;98776.28;7371319;19;19918;-69
2023/05/19 05:07:52;;;;;;;;;;;;;;;10.99;67.42;98785.88;7379048;19;20648;-69
2023/05/19 05:10:21;;;;;;;;;;;;;;;10.93;65.42;98778.56;7367922;19;19926;-69
2023/05/19 05:12:48;;;;;;;;;;;;;;;11.06;66.76;98780.81;7372440;19;19998;-70
2023/05/19 05:15:15;;;;;;;;;;;;;;;10.93;65.66;98779.38;7376380;19;19935;-69
2023/05/19 05:17:42;;;;;;;;;;;;;;;11.21;67.44;98780.16;7371930;19;19943;-69
2023/05/19 05:20:10;;;;;;;;;;;;;;;11.26;66.46;98770.94;7375920;19;20478;-69
2023/05/19 05:22:39;;;;;;;;;;;;;;;11.27;66.45;98772.59;7373454;19;19921;-69
2023/05/19 05:25:07;;;;;;;;;;;;;;;11.26;64.36;98770.94;7378896;19;19911;-70
2023/05/19 05:27:35;;;;;;;;;;;;;;;11.40;66.54;98773.91;7371803;19;20391;-70
2023/05/19 05:30:04;;;;;;;;;;;;;;;11.42;65.68;98777.22;7372461;19;20402;-70
2023/05/19 05:32:30;;;;;;;;;;;;;;;11.43;64.65;98763.00;7370224;19;20249;-70
2023/05/19 05:35:00;;;;;;;;;;;;;;;11.57;66.68;98769.59;7372325;19;19915;-70
2023/05/19 05:37:26;;;;;;;;;;;;;;;11.58;65.54;98771.25;7367541;19;19948;-69
2023/05/19 05:39:54;;;;;;;;;;;;;;;11.62;66.81;98772.63;7376540;19;20340;-70
2023/05/19 05:42:20;;;;;;;;;;;;;;;11.68;64.96;98768.50;7375926;19;20244;-70
2023/05/19 05:44:48;;;;;;;;;;;;;;;11.65;64.65;98767.00;7370718;19;19914;-70
2023/05/19 05:47:15;;;;;;;;;;;;;;;11.68;64.56;98770.34;7373961;19;19922;-70
2023/05/19 05:49:46;;;;;;;;;;;;;;;11.79;66.79;98778.03;7368197;19;19927;-70
2023/05/19 05:52:14;;;;;;;;;;;;;;;11.96;67.80;98779.88;7373397;19;19974;-70
2023/05/19 05:54:45;;;;;;;;;;;;;;;11.93;65.17;98781.97;7371973;19;20740;-69
2023/05/19 05:57:14;;;;;;;;;;;;;;;12.07;65.40;98776.97;7374962;19;19960;-70
2023/05/19 05:59:44;;;;;;;;;;;;;;;12.06;64.74;98774.47;7373455;19;19922;-71
2023/05/19 06:02:10;;;;;;;;;;;;;;;12.17;63.89;98776.03;7375911;19;19950;-69
2023/05/19 06:04:38;;;;;;;;;;;;;;;12.17;63.28;98782.19;7368591;19;19999;-70
2023/05/19 06:07:04;;;;;;;;;;;;;;;12.27;63.29;98777.59;7375465;19;19939;-71
2023/05/19 06:09:34;;;;;;;;;;;;;;;12.30;63.99;98785.25;7370384;19;19971;-70
2023/05/19 06:12:02;;;;;;;;;;;;;;;12.35;63.13;98783.94;7375311;19;20340;-69
2023/05/19 06:14:34;;;;;;;;;;;;;;;12.53;65.56;98779.38;7370022;19;19920;-70
2023/05/19 06:17:24;;;;;;;;;;;;;;;12.54;64.77;98786.38;7374585;19;19922;-70
2023/05/19 06:19:51;;;;;;;;;;;;;;;12.64;65.00;98787.09;7372246;19;20309;-70
2023/05/19 06:22:17;;;;;;;;;;;;;;;12.72;65.20;98781.81;7374842;19;19922;-70
2023/05/19 06:24:44;;;;;;;;;;;;;;;12.74;65.35;98771.88;7373147;19;19915;-69
2023/05/19 06:27:11;;;;;;;;;;;;;;;12.59;61.94;98769.97;7375455;19;19918;-70
2023/05/19 06:29:37;;;;;;;;;;;;;;;12.78;63.16;98767.06;7370278;19;19922;-69
2023/05/19 06:32:06;;;;;;;;;;;;;;;12.84;64.07;98766.41;7377225;19;19919;-70
2023/05/19 06:34:33;;;;;;;;;;;;;;;12.81;63.69;98768.56;7368910;19;19918;-70
2023/05/19 06:37:01;;;;;;;;;;;;;;;12.83;63.10;98771.91;7374151;19;19923;-69
2023/05/19 06:39:29;;;;;;;;;;;;;;;12.86;63.72;98769.75;7367896;19;19919;-70
2023/05/19 06:41:55;;;;;;;;;;;;;;;12.94;62.69;98766.28;7371669;19;19923;-70
2023/05/19 06:44:42;;;;;;;;;;;;;;;13.09;64.61;98770.00;7369836;19;19925;-70
2023/05/19 06:47:10;;;;;;;;;;;;;;;13.24;66.59;98772.00;7376633;19;20371;-70
2023/05/19 06:49:37;;;;;;;;;;;;;;;13.31;65.10;98765.09;7369488;19;20290;-69
2023/05/19 06:52:05;;;;;;;;;;;;;;;13.34;62.03;98762.09;7372788;19;19915;-70
2023/05/19 06:54:31;;;;;;;;;;;;;;;13.48;62.97;98765.91;7364791;19;19997;-70
2023/05/19 06:56:58;;;;;;;;;;;;;;;13.59;63.47;98769.09;7373859;19;19919;-70
2023/05/19 06:59:25;;;;;;;;;;;;;;;13.57;61.53;98770.28;7372632;19;19915;-70
2023/05/19 07:01:52;;;;;;;;;;;;;;;13.75;64.05;98768.28;7371116;19;19938;-70
2023/05/19 07:04:19;;;;;;;;;;;;;;;13.96;64.60;98769.59;7374415;19;19943;-70
2023/05/19 07:06:45;;;;;;;;;;;;;;;13.94;60.55;98767.09;7373464;19;19927;-70
2023/05/19 07:09:12;;;;;;;;;;;;;;;14.05;59.19;98764.09;7375420;19;20841;-70
2023/05/19 07:11:40;;;;;;;;;;;;;;;14.23;61.47;98761.25;7367406;19;19922;-70
2023/05/19 07:14:08;;;;;;;;;;;;;;;14.31;61.83;98762.22;7365994;19;19911;-70
2023/05/19 07:16:35;;;;;;;;;;;;;;;14.39;61.29;98770.19;7367572;19;19919;-70
2023/05/19 07:19:03;;;;;;;;;;;;;;;14.40;59.26;98770.03;7374776;19;20356;-70
2023/05/19 07:21:31;;;;;;;;;;;;;;;14.34;56.84;98765.38;7370135;19;19922;-70
2023/05/19 07:23:58;;;;;;;;;;;;;;;14.35;60.49;98769.72;7374494;19;19938;-69
2023/05/19 07:26:26;;;;;;;;;;;;;;;14.39;59.94;98765.69;7373389;19;19927;-70
2023/05/19 07:28:53;;;;;;;;;;;;;;;14.39;59.40;98771.00;7367703;19;19927;-69
2023/05/19 07:31:20;;;;;;;;;;;;;;;14.28;57.29;98766.88;7373617;19;20683;-70
2023/05/19 07:33:47;;;;;;;;;;;;;;;14.38;59.69;98761.38;7368660;19;19939;-70
2023/05/19 07:36:13;;;;;;;;;;;;;;;14.26;57.65;98758.22;7373036;19;19940;-70
2023/05/19 07:38:40;;;;;;;;;;;;;;;14.26;60.39;98757.41;7372392;19;19921;-70
2023/05/19 07:41:07;;;;;;;;;;;;;;;14.27;58.31;98765.25;7374186;19;19929;-69
2023/05/19 07:43:34;;;;;;;;;;;;;;;14.28;59.39;98758.06;7366379;19;19922;-69
2023/05/19 07:46:00;;;;;;;;;;;;;;;14.45;61.00;98764.19;7373491;19;19919;-69
2023/05/19 07:48:28;;;;;;;;;;;;;;;14.44;56.46;98759.88;7374326;19;19923;-69
2023/05/19 07:50:55;;;;;;;;;;;;;;;14.55;59.25;98758.69;7367912;19;19927;-69
2023/05/19 07:53:21;;;;;;;;;;;;;;;14.66;59.45;98756.47;7373768;19;19921;-70
2023/05/19 07:55:49;;;;;;;;;;;;;;;14.84;58.93;98748.25;7371256;19;19935;-70
2023/05/19 07:58:16;;;;;;;;;;;;;;;14.84;58.64;98748.25;7374020;19;19995;-70
2023/05/19 08:00:44;;;;;;;;;;;;;;;14.95;58.25;98748.88;7366548;19;19939;-70
2023/05/19 08:03:12;;;;;;;;;;;;;;;14.86;57.15;98745.41;7371775;19;19961;-69
2023/05/19 08:05:39;;;;;;;;;;;;;;;14.92;58.23;98740.22;7367807;19;20249;-70
2023/05/19 08:08:06;;;;;;;;;;;;;;;14.90;58.50;98739.59;7373604;19;19930;-70
2023/05/19 08:10:32;;;;;;;;;;;;;;;14.84;57.79;98742.91;7374689;19;19922;-70
2023/05/19 08:13:00;;;;;;;;;;;;;;;14.90;59.24;98744.06;7370898;19;19978;-70
2023/05/19 08:15:29;;;;;;;;;;;;;;;14.71;57.69;98738.16;7372586;19;19939;-70
2023/05/19 08:17:56;;;;;;;;;;;;;;;14.79;59.53;98733.78;7366221;19;19982;-70
2023/05/19 08:20:23;;;;;;;;;;;;;;;14.66;56.68;98737.00;7369370;19;20369;-71
2023/05/19 08:22:50;;;;;;;;;;;;;;;14.63;56.59;98732.03;7365423;19;19925;-70
2023/05/19 08:25:18;;;;;;;;;;;;;;;14.66;58.26;98726.34;7376396;19;19918;-70
2023/05/19 08:27:45;;;;;;;;;;;;;;;14.61;57.83;98726.03;7373408;19;19915;-70
2023/05/19 08:30:12;;;;;;;;;;;;;;;14.75;58.29;98730.66;7379789;19;19926;-69
2023/05/19 08:32:38;;;;;;;;;;;;;;;14.83;58.37;98730.63;7374605;19;19915;-70
2023/05/19 08:35:06;;;;;;;;;;;;;;;14.84;58.83;98731.44;7379041;19;20533;-70
2023/05/19 08:37:35;;;;;;;;;;;;;;;14.90;58.51;98720.06;7379348;19;19919;-70
2023/05/19 08:40:04;;;;;;;;;;;;;;;14.95;58.54;98716.91;7381546;19;19919;-70
2023/05/19 08:42:31;;;;;;;;;;;;;;;15.02;59.86;98717.88;7380761;19;19915;-70
2023/05/19 08:44:58;;;;;;;;;;;;;;;15.03;57.69;98724.84;7377814;19;19923;-70
2023/05/19 08:47:26;;;;;;;;;;;;;;;15.14;59.33;98721.78;7384592;19;20238;-71
2023/05/19 08:49:54;;;;;;;;;;;;;;;15.09;57.95;98724.97;7376330;19;19923;-70
2023/05/19 08:52:24;;;;;;;;;;;;;;;15.15;59.08;98723.44;7388265;19;19966;-70
2023/05/19 08:54:53;;;;;;;;;;;;;;;15.24;59.24;98727.69;7391517;19;19909;-70
2023/05/19 08:57:20;;;;;;;;;;;;;;;15.19;59.12;98723.91;7404685;19;19939;-70
2023/05/19 08:59:47;;;;;;;;;;;;;;;15.20;56.98;98725.59;7399621;19;19942;-69
2023/05/19 09:02:14;;;;;;;;;;;;;;;15.10;56.28;98728.47;7396827;19;19919;-69
2023/05/19 09:04:44;;;;;;;;;;;;;;;14.98;56.08;98727.19;7397729;19;19935;-70
2023/05/19 09:07:12;;;;;;;;;;;;;;;14.93;56.99;98723.25;7398708;19;19915;-69
2023/05/19 09:09:42;;;;;;;;;;;;;;;15.07;56.55;98716.31;7393044;19;19919;-70
2023/05/19 09:12:12;;;;;;;;;;;;;;;15.00;56.12;98715.38;7383269;19;19926;-69
2023/05/19 09:14:39;;;;;;;;;;;;;;;14.98;57.72;98716.53;7376556;19;19930;-69
2023/05/19 09:17:05;;;;;;;;;;;;;;;15.05;56.74;98712.19;7379455;19;19926;-69
2023/05/19 09:19:32;;;;;;;;;;;;;;;15.23;58.40;98715.38;7377628;19;19928;-69
2023/05/19 09:22:02;;;;;;;;;;;;;;;15.14;56.86;98717.28;7375208;19;20666;-70
2023/05/19 09:24:28;;;;;;;;;;;;;;;15.03;57.41;98712.34;7377224;19;19923;-70
2023/05/19 09:26:58;;;;;;;;;;;;;;;15.09;57.41;98713.50;7373329;19;19926;-69
2023/05/19 09:29:25;;;;;;;;;;;;;;;15.16;59.59;98714.44;7376241;19;19922;-69
2023/05/19 09:31:53;;;;;;;;;;;;;;;15.17;58.38;98718.78;7372501;19;20002;-69
2023/05/19 09:34:21;;;;;;;;;;;;;;;15.06;57.54;98716.50;7379236;19;20462;-69
2023/05/19 09:36:48;;;;;;;;;;;;;;;15.11;56.60;98712.31;7374469;19;19930;-70
2023/05/19 09:39:15;;;;;;;;;;;;;;;15.02;56.58;98709.88;7378464;19;19923;-69
2023/05/19 09:41:42;;;;;;;;;;;;;;;15.12;57.78;98713.13;7372413;19;19967;-69
2023/05/19 09:44:12;;;;;;;;;;;;;;;15.12;56.17;98710.47;7378303;19;20005;-69
2023/05/19 09:46:46;;;;;;;;;;;;;;;15.30;57.11;98710.19;7376263;19;20373;-69
2023/05/19 09:49:13;;;;;;;;;;;;;;;15.37;57.61;98709.28;7377153;19;19926;-69
2023/05/19 09:51:40;;;;;;;;;;;;;;;15.43;57.20;98709.56;7377586;19;20252;-69
2023/05/19 09:54:08;;;;;;;;;;;;;;;15.60;56.52;98711.13;7377802;19;19927;-69
2023/05/19 09:56:35;;;;;;;;;;;;;;;15.43;53.74;98715.75;7376126;19;19923;-70
2023/05/19 09:59:02;;;;;;;;;;;;;;;15.70;58.27;98706.38;7375088;19;23245;-69
2023/05/19 10:01:30;;;;;;;;;;;;;;;15.77;55.34;98701.16;7374146;19;19919;-69
2023/05/19 10:03:56;;;;;;;;;;;;;;;15.73;57.49;98703.34;7370244;19;20356;-70
2023/05/19 10:06:23;;;;;;;;;;;;;;;15.49;55.65;98709.69;7374048;19;19938;-70
2023/05/19 10:08:50;;;;;;;;;;;;;;;15.49;55.67;98706.22;7369311;19;20016;-69
2023/05/19 10:11:17;;;;;;;;;;;;;;;15.52;57.90;98700.50;7374841;19;19918;-69
2023/05/19 10:13:44;;;;;;;;;;;;;;;15.34;54.96;98704.31;7368007;19;19919;-70
2023/05/19 10:16:11;;;;;;;;;;;;;;;15.27;56.60;98706.03;7374235;19;19978;-70
2023/05/19 10:18:37;;;;;;;;;;;;;;;15.28;59.23;98702.34;7373309;19;19922;-70
2023/05/19 10:21:06;;;;;;;;;;;;;;;15.33;59.45;98700.00;7367026;19;20720;-70
2023/05/19 10:23:33;;;;;;;;;;;;;;;15.26;56.65;98707.03;7374303;19;20386;-70
2023/05/19 10:26:00;;;;;;;;;;;;;;;15.26;58.96;98704.38;7370026;19;19927;-69
2023/05/19 10:28:30;;;;;;;;;;;;;;;15.28;58.08;98696.22;7377344;19;20363;-70
2023/05/19 10:30:57;;;;;;;;;;;;;;;15.39;58.05;98690.44;7370383;19;19990;-70
2023/05/19 10:33:43;;;;;;;;;;;;;;;15.46;58.30;98698.56;7370791;19;20256;-70
2023/05/19 10:36:22;;;;;;;;;;;;;;;15.55;57.73;98689.50;7372870;19;19914;-69
2023/05/19 10:38:52;;;;;;;;;;;;;;;15.69;57.30;98704.75;7368834;19;20240;-69
2023/05/19 10:41:22;;;;;;;;;;;;;;;15.92;58.15;98695.84;7370638;19;19919;-70
2023/05/19 10:43:48;;;;;;;;;;;;;;;16.11;57.44;98692.63;7368769;19;19925;-70
2023/05/19 10:46:15;;;;;;;;;;;;;;;16.03;55.66;98690.06;7376870;19;19944;-70
2023/05/19 10:48:43;;;;;;;;;;;;;;;15.95;53.51;98688.28;7378038;19;19922;-69
2023/05/19 10:51:11;;;;;;;;;;;;;;;16.19;56.27;98687.22;7367059;19;19915;-70
2023/05/19 10:53:50;;;;;;;;;;;;;;;16.11;54.07;98683.81;7372403;19;20314;-70
2023/05/19 10:56:32;;;;;;;;;;;;;;;16.02;54.31;98689.22;7378958;19;19929;-69
2023/05/19 10:59:00;;;;;;;;;;;;;;;15.96;56.00;98689.97;7369328;19;19919;-70
2023/05/19 11:01:33;;;;;;;;;;;;;;;15.94;56.04;98686.66;7377221;19;19947;-70
2023/05/19 11:04:04;;;;;;;;;;;;;;;15.99;55.73;98686.13;7373363;19;19922;-71
2023/05/19 11:06:31;;;;;;;;;;;;;;;15.92;56.94;98688.66;7376315;19;20023;-70
2023/05/19 11:08:59;;;;;;;;;;;;;;;15.75;55.85;98684.50;7372411;19;19922;-70
2023/05/19 11:11:27;;;;;;;;;;;;;;;15.75;57.08;98680.00;7378852;19;19939;-70
2023/05/19 11:13:54;;;;;;;;;;;;;;;15.92;57.15;98686.00;7369732;19;20442;-70
2023/05/19 11:16:28;;;;;;;;;;;;;;;16.07;56.88;98685.19;7379055;19;20353;-70
2023/05/19 11:18:55;;;;;;;;;;;;;;;15.95;53.14;98682.97;7371389;19;19938;-70
2023/05/19 11:21:22;;;;;;;;;;;;;;;16.02;54.71;98689.22;7371549;19;19939;-70
2023/05/19 11:23:49;;;;;;;;;;;;;;;16.04;54.38;98682.91;7370837;19;19994;-69
2023/05/19 11:26:24;;;;;;;;;;;;;;;16.06;56.15;98680.84;7372344;19;20672;-70
2023/05/19 11:28:51;;;;;;;;;;;;;;;16.10;54.66;98688.31;7371697;19;20479;-70
2023/05/19 11:31:17;;;;;;;;;;;;;;;16.03;55.10;98682.06;7371910;19;19966;-69
2023/05/19 11:33:44;;;;;;;;;;;;;;;16.01;58.12;98689.44;7374822;19;19994;-70
2023/05/19 11:36:11;;;;;;;;;;;;;;;15.89;58.04;98694.38;7368772;19;19930;-70
2023/05/19 11:38:38;;;;;;;;;;;;;;;15.81;56.83;98686.44;7374199;19;20645;-70
2023/05/19 11:41:04;;;;;;;;;;;;;;;15.74;56.36;98683.66;7365307;19;20363;-70
2023/05/19 11:43:31;;;;;;;;;;;;;;;15.69;54.91;98686.06;7369193;19;20372;-70
2023/05/19 11:45:58;;;;;;;;;;;;;;;15.79;56.53;98678.63;7370670;19;19922;-70
2023/05/19 11:48:26;;;;;;;;;;;;;;;15.88;57.73;98679.38;7375885;19;20363;-70
2023/05/19 11:50:53;;;;;;;;;;;;;;;15.87;57.27;98676.88;7369165;19;21146;-70
2023/05/19 11:53:19;;;;;;;;;;;;;;;15.97;56.84;98678.28;7366789;19;19914;-71
2023/05/19 11:55:46;;;;;;;;;;;;;;;16.00;56.31;98671.75;7363336;19;20403;-71
2023/05/19 11:58:14;;;;;;;;;;;;;;;16.21;56.83;98665.69;7361998;19;19919;-70
2023/05/19 12:00:42;;;;;;;;;;;;;;;16.26;53.33;98667.78;7368778;19;19921;-70
2023/05/19 12:03:08;;;;;;;;;;;;;;;16.41;54.83;98671.28;7364741;19;19926;-70
2023/05/19 12:05:36;;;;;;;;;;;;;;;16.38;53.85;98663.66;7373362;19;19939;-70
2023/05/19 12:08:08;;;;;;;;;;;;;;;16.49;55.57;98660.50;7368579;19;19925;-70
2023/05/19 12:10:35;;;;;;;;;;;;;;;16.56;55.66;98663.25;7369653;19;19919;-70
2023/05/19 12:13:01;;;;;;;;;;;;;;;16.56;55.10;98657.91;7367073;19;19922;-70
2023/05/19 12:15:28;;;;;;;;;;;;;;;16.64;53.53;98660.47;7370254;19;19919;-70
2023/05/19 12:17:57;;;;;;;;;;;;;;;16.73;53.74;98663.88;7372285;19;20407;-70
2023/05/19 12:20:25;;;;;;;;;;;;;;;16.62;55.33;98662.50;7368082;19;19930;-70
2023/05/19 12:22:51;;;;;;;;;;;;;;;16.66;56.45;98661.94;7365388;19;19919;-70
2023/05/19 12:25:18;;;;;;;;;;;;;;;16.57;56.48;98663.06;7365749;19;19998;-70
2023/05/19 12:27:47;;;;;;;;;;;;;;;16.43;54.16;98654.06;7372302;19;19928;-69
2023/05/19 12:30:15;;;;;;;;;;;;;;;16.17;55.15;98662.56;7365689;19;21234;-71
2023/05/19 12:32:42;;;;;;;;;;;;;;;16.02;56.22;98656.38;7366909;19;19924;-70
2023/05/19 12:35:09;;;;;;;;;;;;;;;15.96;56.35;98663.28;7367894;19;19919;-69
2023/05/19 12:37:39;;;;;;;;;;;;;;;15.87;56.31;98663.53;7374781;19;19930;-70
2023/05/19 12:40:06;;;;;;;;;;;;;;;15.72;57.69;98672.38;7365180;19;19919;-70
2023/05/19 12:42:34;;;;;;;;;;;;;;;15.71;58.23;98665.34;7369112;19;20514;-70
2023/05/19 12:45:01;;;;;;;;;;;;;;;15.64;58.02;98669.75;7367738;19;19957;-70
2023/05/19 12:47:38;;;;;;;;;;;;;;;15.58;58.81;98667.78;7370695;19;19922;-70
2023/05/19 12:50:07;;;;;;;;;;;;;;;15.50;58.41;98675.84;7367660;19;20346;-70
2023/05/19 12:52:40;;;;;;;;;;;;;;;15.52;58.42;98665.84;7371862;19;20309;-71